createdAt,value
2023-01-01T00:01:18.175Z,45.00
2023-01-01T00:04:00.061Z,50.00
2023-01-01T00:06:29.298Z,47.00
2023-01-01T00:14:27.243Z,42.50
2023-01-01T00:16:56.687Z,41.00
2023-01-01T00:22:44.158Z,33.00
2023-01-01T00:24:59.611Z,36.00
2023-01-01T00:27:30.074Z,42.00
2023-01-01T00:30:05.719Z,34.00
2023-01-01T00:32:41.185Z,31.50
2023-01-01T00:35:14.186Z,25.50
2023-01-01T00:37:46.605Z,33.00
2023-01-01T00:40:19.284Z,39.00
2023-01-01T00:45:26.140Z,25.00
2023-01-01T00:47:55.296Z,35.00
2023-01-01T00:52:59.195Z,31.00
2023-01-01T01:00:29.056Z,35.00
2023-01-01T01:02:57.249Z,27.00
2023-01-01T01:05:25.401Z,25.50
2023-01-01T01:07:53.645Z,27.50
2023-01-01T01:10:22.823Z,27.00
2023-01-01T01:12:50.749Z,28.00
2023-01-01T01:15:20.116Z,27.00
2023-01-01T01:20:23.109Z,27.00
2023-01-01T01:22:52.216Z,28.00
2023-01-01T01:25:20.297Z,38.00
2023-01-01T01:30:28.260Z,29.50
2023-01-01T01:32:57.481Z,27.00
2023-01-01T01:35:25.372Z,44.00
2023-01-01T01:38:31.251Z,39.00
2023-01-01T01:40:59.383Z,37.00
2023-01-01T01:43:32.481Z,45.50
2023-01-01T01:46:06.121Z,30.50
2023-01-01T01:48:39.567Z,33.50
2023-01-01T01:51:12.536Z,27.00
2023-01-01T01:53:47.067Z,26.50
2023-01-01T01:56:22.025Z,35.00
2023-01-01T01:58:50.517Z,42.00
2023-01-01T02:03:59.345Z,27.50
2023-01-01T02:06:30.311Z,28.00
2023-01-01T02:11:28.527Z,22.00
2023-01-01T02:19:00.345Z,25.00
2023-01-01T02:21:34.902Z,19.00
2023-01-01T02:24:12.052Z,20.00
2023-01-01T02:27:00.031Z,22.00
2023-01-01T02:29:47.211Z,19.00
2023-01-01T02:32:31.727Z,22.00
2023-01-01T02:35:31.483Z,23.00
2023-01-01T02:40:57.989Z,23.50
2023-01-01T02:43:26.289Z,19.00
2023-01-01T02:45:55.206Z,21.50
2023-01-01T02:48:38.729Z,15.50
2023-01-01T02:51:28.056Z,18.00
2023-01-01T02:59:45.664Z,24.00
2023-01-01T03:02:21.032Z,20.50
2023-01-01T03:07:46.630Z,18.00
2023-01-01T03:10:21.772Z,27.00
2023-01-01T03:18:25.092Z,23.00
2023-01-01T03:26:00.570Z,20.00
2023-01-01T03:31:26.326Z,21.00
2023-01-01T03:34:10.529Z,22.00
2023-01-01T03:36:43.933Z,31.00
2023-01-01T03:39:27.489Z,22.00
2023-01-01T03:42:11.152Z,19.00
2023-01-01T03:44:56.683Z,18.00
2023-01-01T03:47:25.089Z,20.00
2023-01-01T03:49:53.265Z,20.00
2023-01-01T03:52:35.460Z,23.00
2023-01-01T03:55:16.234Z,18.00
2023-01-01T03:57:56.242Z,18.00
2023-01-01T04:00:31.234Z,16.00
2023-01-01T04:03:07.439Z,13.00
2023-01-01T04:13:06.642Z,18.00
2023-01-01T04:18:05.028Z,16.00
2023-01-01T04:23:02.099Z,15.00
2023-01-01T04:27:59.085Z,11.00
2023-01-01T04:35:24.573Z,13.00
2023-01-01T04:37:53.013Z,11.00
2023-01-01T04:42:49.103Z,8.00
2023-01-01T04:47:46.124Z,15.00
2023-01-01T04:50:14.103Z,11.00
2023-01-01T04:52:42.140Z,12.00
2023-01-01T04:55:10.358Z,11.00
2023-01-01T04:57:38.848Z,14.00
2023-01-01T05:00:07.562Z,11.00
2023-01-01T05:02:35.850Z,12.00
2023-01-01T05:05:04.294Z,11.00
2023-01-01T05:07:33.896Z,11.50
2023-01-01T05:12:30.667Z,17.00
2023-01-01T05:14:58.574Z,12.00
2023-01-01T05:19:54.389Z,12.00
2023-01-01T05:24:50.248Z,13.00
2023-01-01T05:27:18.353Z,12.00
2023-01-01T05:34:41.345Z,12.50
2023-01-01T05:37:09.308Z,16.00
2023-01-01T05:42:05.658Z,11.00
2023-01-01T05:44:33.830Z,19.00
2023-01-01T05:47:01.824Z,13.00
2023-01-01T05:49:29.831Z,11.00
2023-01-01T05:51:57.727Z,13.00
2023-01-01T05:56:53.689Z,6.00
2023-01-01T05:59:22.075Z,10.00
2023-01-01T06:01:50.068Z,7.00
2023-01-01T06:04:18.234Z,7.00
2023-01-01T06:06:46.285Z,9.00
2023-01-01T06:09:14.251Z,7.00
2023-01-01T06:16:39.545Z,12.00
2023-01-01T06:21:35.730Z,9.00
2023-01-01T06:29:03.203Z,11.00
2023-01-01T06:31:35.531Z,12.00
2023-01-01T06:34:09.552Z,12.00
2023-01-01T06:36:37.724Z,11.00
2023-01-01T06:39:09.252Z,10.00
2023-01-01T06:41:37.295Z,14.00
2023-01-01T06:46:36.160Z,11.00
2023-01-01T06:49:07.160Z,10.00
2023-01-01T06:56:39.109Z,12.00
2023-01-01T06:59:07.461Z,11.50
2023-01-01T07:01:37.323Z,10.00
2023-01-01T07:06:36.146Z,9.00
2023-01-01T07:09:05.697Z,16.00
2023-01-01T07:11:34.377Z,14.00
2023-01-01T07:14:03.124Z,10.50
2023-01-01T07:16:31.330Z,9.00
2023-01-01T07:18:59.389Z,10.50
2023-01-01T07:21:39.786Z,9.00
2023-01-01T07:24:10.951Z,11.00
2023-01-01T07:26:40.152Z,10.50
2023-01-01T07:29:09.751Z,15.00
2023-01-01T07:31:40.041Z,13.00
2023-01-01T07:34:14.851Z,14.00
2023-01-01T07:36:43.499Z,8.00
2023-01-01T07:39:12.274Z,8.00
2023-01-01T07:41:40.351Z,9.00
2023-01-01T07:44:08.582Z,12.50
2023-01-01T07:54:06.638Z,10.00
2023-01-01T07:56:36.925Z,13.00
2023-01-01T07:59:05.223Z,10.00
2023-01-01T08:01:36.751Z,12.00
2023-01-01T08:04:05.379Z,14.00
2023-01-01T08:06:33.715Z,13.00
2023-01-01T08:16:25.869Z,14.00
2023-01-01T08:18:53.814Z,13.00
2023-01-01T08:21:22.937Z,16.50
2023-01-01T08:23:50.912Z,14.00
2023-01-01T08:26:29.465Z,16.00
2023-01-01T08:28:58.437Z,10.00
2023-01-01T08:33:55.473Z,15.00
2023-01-01T08:36:23.735Z,11.00
2023-01-01T08:38:51.769Z,13.50
2023-01-01T08:41:19.694Z,12.00
2023-01-01T08:43:47.874Z,14.00
2023-01-01T08:48:44.231Z,18.00
2023-01-01T08:53:44.190Z,15.50
2023-01-01T08:56:16.873Z,12.50
2023-01-01T08:58:44.929Z,12.00
2023-01-01T09:01:13.026Z,13.00
2023-01-01T09:03:41.020Z,11.50
2023-01-01T09:06:09.230Z,14.00
2023-01-01T09:08:37.285Z,12.00
2023-01-01T09:11:05.437Z,10.50
2023-01-01T09:16:02.793Z,13.00
2023-01-01T09:21:00.825Z,11.00
2023-01-01T09:23:28.792Z,11.00
2023-01-01T09:25:58.388Z,6.00
2023-01-01T09:28:28.930Z,11.00
2023-01-01T09:30:57.108Z,14.00
2023-01-01T09:33:25.120Z,9.00
2023-01-01T09:35:53.276Z,11.00
2023-01-01T09:38:21.313Z,11.00
2023-01-01T09:41:14.079Z,13.00
2023-01-01T09:46:31.894Z,14.00
2023-01-01T09:51:39.860Z,17.00
2023-01-01T09:54:27.513Z,9.00
2023-01-01T09:56:58.628Z,13.00
2023-01-01T10:02:11.090Z,13.00
2023-01-01T10:04:48.242Z,14.50
2023-01-01T10:07:37.641Z,12.00
2023-01-01T10:13:04.615Z,13.00
2023-01-01T10:15:38.051Z,9.00
2023-01-01T10:18:15.711Z,13.00
2023-01-01T10:21:11.540Z,14.00
2023-01-01T10:23:44.811Z,9.00
2023-01-01T10:26:18.054Z,9.00
2023-01-01T10:29:01.990Z,7.00
2023-01-01T10:31:41.559Z,10.00
2023-01-01T10:34:24.619Z,10.50
2023-01-01T10:36:55.919Z,10.00
2023-01-01T10:39:25.614Z,7.50
2023-01-01T10:41:53.632Z,12.00
2023-01-01T10:44:31.795Z,9.00
2023-01-01T10:47:10.973Z,10.00
2023-01-01T10:50:00.495Z,13.00
2023-01-01T10:52:41.265Z,10.50
2023-01-01T10:57:51.890Z,10.00
2023-01-01T11:03:16.820Z,8.00
2023-01-01T11:06:22.539Z,11.00
2023-01-01T11:08:53.582Z,11.00
2023-01-01T11:13:55.148Z,7.50
2023-01-01T11:18:52.108Z,12.00
2023-01-01T11:21:23.174Z,11.00
2023-01-01T11:24:09.568Z,13.00
2023-01-01T11:26:37.760Z,13.00
2023-01-01T11:29:20.923Z,13.00
2023-01-01T11:34:26.779Z,11.00
2023-01-01T11:37:16.829Z,13.00
2023-01-01T11:39:47.670Z,12.00
2023-01-01T11:42:25.736Z,8.00
2023-01-01T11:50:14.621Z,12.00
2023-01-01T11:53:24.621Z,16.50
2023-01-01T11:56:17.548Z,11.00
2023-01-01T12:01:27.519Z,13.50
2023-01-01T12:03:59.459Z,11.00
2023-01-01T12:06:41.940Z,13.00
2023-01-01T12:09:42.535Z,13.50
2023-01-01T12:12:23.736Z,11.50
2023-01-01T12:15:33.570Z,10.00
2023-01-01T12:18:07.507Z,9.50
2023-01-01T12:20:48.562Z,13.00
2023-01-01T12:28:33.496Z,11.00
2023-01-01T12:31:16.167Z,8.00
2023-01-01T12:34:25.152Z,9.00
2023-01-01T12:39:58.610Z,8.50
2023-01-01T12:42:33.205Z,10.00
2023-01-01T12:45:13.821Z,11.50
2023-01-01T12:47:57.329Z,12.00
2023-01-01T12:51:03.163Z,8.00
2023-01-01T12:56:40.768Z,13.00
2023-01-01T12:59:34.489Z,9.00
2023-01-01T13:02:12.150Z,17.00
2023-01-01T13:04:42.083Z,11.00
2023-01-01T13:12:18.967Z,16.00
2023-01-01T13:14:52.454Z,11.50
2023-01-01T13:19:57.480Z,14.00
2023-01-01T13:27:56.285Z,15.00
2023-01-01T13:30:42.671Z,11.00
2023-01-01T13:33:26.291Z,11.50
2023-01-01T13:38:44.190Z,13.00
2023-01-01T13:41:37.114Z,13.00
2023-01-01T13:44:05.224Z,12.00
2023-01-01T13:49:28.889Z,11.50
2023-01-01T13:52:05.772Z,9.00
2023-01-01T13:57:35.994Z,11.00
2023-01-01T14:00:30.587Z,12.50
2023-01-01T14:03:02.998Z,14.00
2023-01-01T14:05:45.195Z,11.50
2023-01-01T14:08:32.368Z,11.00
2023-01-01T14:11:04.982Z,13.50
2023-01-01T14:13:41.489Z,12.50
2023-01-01T14:16:13.904Z,15.00
2023-01-01T14:18:52.073Z,20.00
2023-01-01T14:23:59.715Z,18.00
2023-01-01T14:26:31.717Z,21.00
2023-01-01T14:29:05.906Z,15.00
2023-01-01T14:31:42.479Z,23.00
2023-01-01T14:34:23.541Z,18.50
2023-01-01T14:36:58.371Z,29.00
2023-01-01T14:42:07.634Z,18.50
2023-01-01T14:44:43.280Z,17.00
2023-01-01T14:47:35.247Z,17.00
2023-01-01T14:52:39.344Z,12.50
2023-01-01T14:55:08.482Z,12.00
2023-01-01T14:57:37.991Z,15.00
2023-01-01T15:00:23.609Z,17.00
2023-01-01T15:02:51.962Z,22.50
2023-01-01T15:08:02.628Z,21.00
2023-01-01T15:13:00.536Z,25.00
2023-01-01T15:15:37.848Z,24.00
2023-01-01T15:25:42.596Z,29.00
2023-01-01T15:30:57.763Z,28.50
2023-01-01T15:33:25.920Z,22.00
2023-01-01T15:36:01.765Z,46.00
2023-01-01T15:38:34.765Z,28.00
2023-01-01T15:41:23.559Z,31.00
2023-01-01T15:43:51.871Z,21.00
2023-01-01T15:46:32.093Z,28.00
2023-01-01T15:49:00.896Z,27.00
2023-01-01T15:56:32.348Z,27.00
2023-01-01T15:59:08.667Z,28.00
2023-01-01T16:01:40.416Z,27.50
2023-01-01T16:04:15.789Z,22.50
2023-01-01T16:09:21.220Z,27.00
2023-01-01T16:14:21.514Z,27.00
2023-01-01T16:16:55.014Z,29.00
2023-01-01T16:19:23.997Z,29.00
2023-01-01T16:21:52.009Z,33.00
2023-01-01T16:24:20.635Z,17.00
2023-01-01T16:26:48.577Z,48.00
2023-01-01T16:29:16.758Z,43.00
2023-01-01T16:31:47.559Z,36.00
2023-01-01T16:34:15.667Z,36.00
2023-01-01T16:36:44.946Z,31.00
2023-01-01T16:39:12.957Z,42.00
2023-01-01T16:41:45.221Z,51.00
2023-01-01T16:49:12.589Z,35.00
2023-01-01T16:54:12.633Z,24.00
2023-01-01T16:59:08.726Z,30.00
2023-01-01T17:04:05.074Z,25.00
2023-01-01T17:06:33.425Z,30.50
2023-01-01T17:11:29.302Z,32.00
2023-01-01T17:16:32.879Z,27.00
2023-01-01T17:19:15.755Z,28.50
2023-01-01T17:24:16.095Z,23.00
2023-01-01T17:26:44.157Z,30.00
2023-01-01T17:29:12.290Z,34.00
2023-01-01T17:31:40.359Z,33.00
2023-01-01T17:34:13.801Z,34.00
2023-01-01T17:44:09.030Z,28.00
2023-01-01T17:54:03.013Z,34.50
2023-01-01T17:56:31.169Z,38.50
2023-01-01T17:58:59.156Z,34.50
2023-01-01T18:01:31.003Z,36.00
2023-01-01T18:04:01.739Z,31.00
2023-01-01T18:06:31.546Z,31.00
2023-01-01T18:09:01.989Z,25.00
2023-01-01T18:11:32.651Z,29.00
2023-01-01T18:14:03.059Z,30.50
2023-01-01T18:16:33.232Z,31.00
2023-01-01T18:19:04.285Z,28.00
2023-01-01T18:24:02.032Z,35.00
2023-01-01T18:26:31.427Z,31.00
2023-01-01T18:29:01.514Z,24.00
2023-01-01T18:31:32.365Z,22.00
2023-01-01T18:36:32.871Z,21.00
2023-01-01T18:39:16.040Z,28.00
2023-01-01T18:42:01.633Z,21.00
2023-01-01T18:44:31.827Z,25.50
2023-01-01T18:47:07.023Z,34.00
2023-01-01T18:49:37.433Z,38.00
2023-01-01T18:52:08.423Z,26.00
2023-01-01T18:54:36.761Z,40.00
2023-01-01T18:57:07.783Z,35.00
2023-01-01T18:59:37.735Z,32.00
2023-01-01T19:02:20.078Z,34.00
2023-01-01T19:04:49.607Z,36.00
2023-01-01T19:09:45.693Z,41.50
2023-01-01T19:17:41.163Z,38.00
2023-01-01T19:20:16.251Z,30.00
2023-01-01T19:22:44.400Z,32.00
2023-01-01T19:25:39.450Z,27.00
2023-01-01T19:28:26.294Z,31.50
2023-01-01T19:30:55.552Z,30.00
2023-01-01T19:33:23.741Z,25.50
2023-01-01T19:35:51.674Z,31.00
2023-01-01T19:38:19.687Z,27.00
2023-01-01T19:40:47.706Z,25.00
2023-01-01T19:43:15.769Z,29.00
2023-01-01T19:45:43.895Z,28.50
2023-01-01T19:50:39.876Z,27.00
2023-01-01T19:53:07.937Z,30.00
2023-01-01T19:55:36.418Z,32.00
2023-01-01T20:00:32.924Z,33.50
2023-01-01T20:08:17.842Z,37.50
2023-01-01T20:15:46.484Z,30.00
2023-01-01T20:18:14.931Z,38.00
2023-01-01T20:21:01.455Z,40.50
2023-01-01T20:23:30.182Z,35.00
2023-01-01T20:25:58.096Z,44.00
2023-01-01T20:28:45.219Z,35.00
2023-01-01T20:31:13.327Z,31.00
2023-01-01T20:33:42.670Z,28.00
2023-01-01T20:36:30.030Z,35.00
2023-01-01T20:38:58.240Z,36.50
2023-01-01T20:41:26.383Z,28.00
2023-01-01T20:46:25.596Z,29.00
2023-01-01T20:48:53.909Z,29.00
2023-01-01T20:51:22.788Z,32.00
2023-01-01T20:53:51.851Z,38.00
2023-01-01T20:58:50.314Z,34.00
2023-01-01T21:01:20.541Z,29.00
2023-01-01T21:03:48.784Z,33.00
2023-01-01T21:06:23.506Z,40.00
2023-01-01T21:08:53.022Z,37.00
2023-01-01T21:13:49.826Z,37.00
2023-01-01T21:18:49.159Z,28.50
2023-01-01T21:21:26.864Z,34.00
2023-01-01T21:24:12.104Z,35.00
2023-01-01T21:26:40.328Z,26.00
2023-01-01T21:29:13.997Z,32.00
2023-01-01T21:31:43.249Z,27.00
2023-01-01T21:34:49.190Z,28.00
2023-01-01T21:43:10.582Z,28.50
2023-01-01T21:45:43.914Z,30.00
2023-01-01T21:48:22.834Z,33.00
2023-01-01T21:50:54.293Z,27.00
2023-01-01T21:53:27.183Z,29.00
2023-01-01T21:55:56.758Z,32.00
2023-01-01T22:01:36.479Z,27.00
2023-01-01T22:04:11.118Z,28.00
2023-01-01T22:06:42.669Z,26.50
2023-01-01T22:09:40.752Z,28.50
2023-01-01T22:12:14.890Z,41.00
2023-01-01T22:14:47.303Z,39.50
2023-01-01T22:17:30.776Z,34.00
2023-01-01T22:20:20.816Z,37.00
2023-01-01T22:22:49.499Z,37.00
2023-01-01T22:25:32.989Z,43.00
2023-01-01T22:28:19.531Z,42.00
2023-01-01T22:33:21.735Z,29.00
2023-01-01T22:40:53.266Z,33.00
2023-01-01T22:43:33.218Z,29.00
2023-01-01T22:46:29.683Z,28.00
2023-01-01T22:51:35.924Z,31.00
2023-01-01T22:54:04.537Z,32.00
2023-01-01T22:56:32.844Z,22.50
2023-01-01T22:59:00.843Z,25.00
2023-01-01T23:06:25.382Z,20.00
2023-01-01T23:08:54.195Z,24.00
2023-01-01T23:11:23.059Z,28.00
2023-01-01T23:14:11.073Z,20.50
2023-01-01T23:19:07.259Z,28.50
2023-01-01T23:21:36.581Z,20.50
2023-01-01T23:26:34.487Z,22.00
2023-01-01T23:29:03.299Z,22.00
2023-01-01T23:34:00.087Z,25.00
2023-01-01T23:36:29.105Z,23.00
2023-01-01T23:38:57.040Z,24.50
2023-01-01T23:41:25.469Z,22.00
2023-01-01T23:46:22.651Z,22.50
2023-01-01T23:51:19.723Z,25.00
2023-01-01T23:53:47.709Z,23.50
2023-01-01T23:58:43.612Z,29.00
